sensor_id;sensor_type;location;lat;lon;timestamp;P1;durP1;ratioP1;P2;durP2;ratioP2
11039;SDS011;5573;49.592;8.662;2023-05-20T00:01:03;264.20;;;249.85;;
11039;SDS011;5573;49.592;8.662;2023-05-20T00:03:31;271.80;;;257.38;;
11039;SDS011;5573;49.592;8.662;2023-05-20T00:06:00;269.83;;;255.40;;
11039;SDS011;5573;49.592;8.662;2023-05-20T00:08:29;292.75;;;277.38;;
11039;SDS011;5573;49.592;8.662;2023-05-20T00:10:56;302.42;;;286.20;;
11039;SDS011;5573;49.592;8.662;2023-05-20T00:13:24;287.17;;;271.67;;
11039;SDS011;5573;49.592;8.662;2023-05-20T00:15:53;291.90;;;276.15;;
11039;SDS011;5573;49.592;8.662;2023-05-20T00:18:20;269.58;;;255.27;;
11039;SDS011;5573;49.592;8.662;2023-05-20T00:20:48;279.13;;;264.25;;
11039;SDS011;5573;49.592;8.662;2023-05-20T00:23:17;288.35;;;273.17;;
11039;SDS011;5573;49.592;8.662;2023-05-20T00:25:45;285.38;;;269.92;;
11039;SDS011;5573;49.592;8.662;2023-05-20T00:28:13;290.90;;;275.25;;
11039;SDS011;5573;49.592;8.662;2023-05-20T00:30:41;265.95;;;251.45;;
11039;SDS011;5573;49.592;8.662;2023-05-20T00:33:10;277.40;;;262.27;;
11039;SDS011;5573;49.592;8.662;2023-05-20T00:35:38;267.13;;;252.52;;
11039;SDS011;5573;49.592;8.662;2023-05-20T00:38:06;252.32;;;238.35;;
11039;SDS011;5573;49.592;8.662;2023-05-20T00:40:35;272.73;;;257.92;;
11039;SDS011;5573;49.592;8.662;2023-05-20T00:43:03;257.00;;;243.25;;
11039;SDS011;5573;49.592;8.662;2023-05-20T00:45:31;264.95;;;250.40;;
11039;SDS011;5573;49.592;8.662;2023-05-20T00:47:59;260.08;;;245.95;;
11039;SDS011;5573;49.592;8.662;2023-05-20T00:50:29;258.45;;;244.10;;
11039;SDS011;5573;49.592;8.662;2023-05-20T00:52:58;244.57;;;231.25;;
11039;SDS011;5573;49.592;8.662;2023-05-20T00:55:26;267.90;;;253.43;;
11039;SDS011;5573;49.592;8.662;2023-05-20T00:57:55;263.25;;;248.70;;
11039;SDS011;5573;49.592;8.662;2023-05-20T01:00:23;230.50;;;217.73;;
11039;SDS011;5573;49.592;8.662;2023-05-20T01:02:51;219.60;;;206.82;;
11039;SDS011;5573;49.592;8.662;2023-05-20T01:05:21;208.93;;;197.00;;
11039;SDS011;5573;49.592;8.662;2023-05-20T01:07:49;217.60;;;205.10;;
11039;SDS011;5573;49.592;8.662;2023-05-20T01:10:18;214.40;;;202.07;;
11039;SDS011;5573;49.592;8.662;2023-05-20T01:12:47;228.68;;;215.85;;
11039;SDS011;5573;49.592;8.662;2023-05-20T01:15:19;209.88;;;197.65;;
11039;SDS011;5573;49.592;8.662;2023-05-20T01:17:50;226.25;;;213.25;;
11039;SDS011;5573;49.592;8.662;2023-05-20T01:20:23;232.57;;;219.85;;
11039;SDS011;5573;49.592;8.662;2023-05-20T01:22:55;217.45;;;205.35;;
11039;SDS011;5573;49.592;8.662;2023-05-20T01:25:23;212.13;;;200.23;;
11039;SDS011;5573;49.592;8.662;2023-05-20T01:27:51;212.73;;;200.73;;
11039;SDS011;5573;49.592;8.662;2023-05-20T01:30:24;221.88;;;209.48;;
11039;SDS011;5573;49.592;8.662;2023-05-20T01:32:57;221.73;;;209.27;;
11039;SDS011;5573;49.592;8.662;2023-05-20T01:35:29;227.20;;;214.75;;
11039;SDS011;5573;49.592;8.662;2023-05-20T01:37:58;216.95;;;204.77;;
11039;SDS011;5573;49.592;8.662;2023-05-20T01:40:27;228.35;;;215.57;;
11039;SDS011;5573;49.592;8.662;2023-05-20T01:42:56;227.57;;;215.05;;
11039;SDS011;5573;49.592;8.662;2023-05-20T01:45:25;223.60;;;211.10;;
11039;SDS011;5573;49.592;8.662;2023-05-20T01:47:53;227.57;;;214.95;;
11039;SDS011;5573;49.592;8.662;2023-05-20T01:50:22;230.02;;;217.18;;
11039;SDS011;5573;49.592;8.662;2023-05-20T01:52:49;235.90;;;222.70;;
11039;SDS011;5573;49.592;8.662;2023-05-20T01:55:19;232.20;;;219.05;;
11039;SDS011;5573;49.592;8.662;2023-05-20T01:57:46;245.20;;;231.60;;
11039;SDS011;5573;49.592;8.662;2023-05-20T02:00:14;237.13;;;223.90;;
11039;SDS011;5573;49.592;8.662;2023-05-20T02:02:43;249.85;;;235.63;;
11039;SDS011;5573;49.592;8.662;2023-05-20T02:05:12;250.63;;;236.75;;
11039;SDS011;5573;49.592;8.662;2023-05-20T02:07:41;253.27;;;239.15;;
11039;SDS011;5573;49.592;8.662;2023-05-20T02:10:09;234.48;;;221.38;;
11039;SDS011;5573;49.592;8.662;2023-05-20T02:12:39;256.42;;;242.15;;
11039;SDS011;5573;49.592;8.662;2023-05-20T02:15:07;245.80;;;232.00;;
11039;SDS011;5573;49.592;8.662;2023-05-20T02:17:35;267.85;;;252.88;;
11039;SDS011;5573;49.592;8.662;2023-05-20T02:20:05;247.55;;;233.70;;
11039;SDS011;5573;49.592;8.662;2023-05-20T02:22:34;268.50;;;253.48;;
11039;SDS011;5573;49.592;8.662;2023-05-20T02:25:02;280.38;;;264.92;;
11039;SDS011;5573;49.592;8.662;2023-05-20T02:27:30;258.30;;;243.75;;
11039;SDS011;5573;49.592;8.662;2023-05-20T02:30:00;259.58;;;245.20;;
11039;SDS011;5573;49.592;8.662;2023-05-20T02:32:27;269.00;;;253.82;;
11039;SDS011;5573;49.592;8.662;2023-05-20T02:34:56;270.02;;;254.27;;
11039;SDS011;5573;49.592;8.662;2023-05-20T02:37:24;272.02;;;256.98;;
11039;SDS011;5573;49.592;8.662;2023-05-20T02:39:52;291.38;;;274.92;;
11039;SDS011;5573;49.592;8.662;2023-05-20T02:42:21;276.67;;;261.20;;
11039;SDS011;5573;49.592;8.662;2023-05-20T02:44:49;277.55;;;262.00;;
11039;SDS011;5573;49.592;8.662;2023-05-20T02:47:19;283.85;;;267.85;;
11039;SDS011;5573;49.592;8.662;2023-05-20T02:49:47;289.05;;;272.92;;
11039;SDS011;5573;49.592;8.662;2023-05-20T02:52:15;289.67;;;273.42;;
11039;SDS011;5573;49.592;8.662;2023-05-20T02:54:43;285.73;;;269.65;;
11039;SDS011;5573;49.592;8.662;2023-05-20T02:57:10;264.90;;;249.75;;
11039;SDS011;5573;49.592;8.662;2023-05-20T02:59:38;301.25;;;284.48;;
11039;SDS011;5573;49.592;8.662;2023-05-20T03:02:06;281.27;;;265.80;;
11039;SDS011;5573;49.592;8.662;2023-05-20T03:04:35;280.35;;;264.73;;
11039;SDS011;5573;49.592;8.662;2023-05-20T03:07:04;276.45;;;261.20;;
11039;SDS011;5573;49.592;8.662;2023-05-20T03:09:34;274.45;;;259.15;;
11039;SDS011;5573;49.592;8.662;2023-05-20T03:12:03;285.55;;;269.48;;
11039;SDS011;5573;49.592;8.662;2023-05-20T03:14:31;264.17;;;249.52;;
11039;SDS011;5573;49.592;8.662;2023-05-20T03:16:59;262.30;;;247.50;;
11039;SDS011;5573;49.592;8.662;2023-05-20T03:19:27;273.67;;;258.25;;
11039;SDS011;5573;49.592;8.662;2023-05-20T03:21:56;283.77;;;267.70;;
11039;SDS011;5573;49.592;8.662;2023-05-20T03:24:25;283.55;;;267.38;;
11039;SDS011;5573;49.592;8.662;2023-05-20T03:26:53;259.10;;;244.32;;
11039;SDS011;5573;49.592;8.662;2023-05-20T03:29:22;270.55;;;255.52;;
11039;SDS011;5573;49.592;8.662;2023-05-20T03:31:50;274.35;;;258.95;;
11039;SDS011;5573;49.592;8.662;2023-05-20T03:34:18;283.27;;;267.77;;
11039;SDS011;5573;49.592;8.662;2023-05-20T03:36:49;277.25;;;261.85;;
11039;SDS011;5573;49.592;8.662;2023-05-20T03:39:19;293.60;;;277.02;;
11039;SDS011;5573;49.592;8.662;2023-05-20T03:41:46;289.95;;;273.55;;
11039;SDS011;5573;49.592;8.662;2023-05-20T03:44:14;303.25;;;286.17;;
11039;SDS011;5573;49.592;8.662;2023-05-20T03:46:42;298.05;;;281.20;;
11039;SDS011;5573;49.592;8.662;2023-05-20T03:49:11;295.95;;;279.08;;
11039;SDS011;5573;49.592;8.662;2023-05-20T03:51:39;295.13;;;278.45;;
11039;SDS011;5573;49.592;8.662;2023-05-20T03:54:10;285.90;;;269.83;;
11039;SDS011;5573;49.592;8.662;2023-05-20T03:56:41;301.20;;;284.15;;
11039;SDS011;5573;49.592;8.662;2023-05-20T03:59:09;283.65;;;267.25;;
11039;SDS011;5573;49.592;8.662;2023-05-20T04:01:37;269.52;;;254.10;;
11039;SDS011;5573;49.592;8.662;2023-05-20T04:04:05;284.95;;;268.88;;
11039;SDS011;5573;49.592;8.662;2023-05-20T04:06:33;282.70;;;266.52;;
11039;SDS011;5573;49.592;8.662;2023-05-20T04:09:01;277.10;;;261.45;;
11039;SDS011;5573;49.592;8.662;2023-05-20T04:11:29;277.15;;;261.50;;
11039;SDS011;5573;49.592;8.662;2023-05-20T04:13:58;279.30;;;263.35;;
11039;SDS011;5573;49.592;8.662;2023-05-20T04:16:27;294.15;;;277.33;;
11039;SDS011;5573;49.592;8.662;2023-05-20T04:18:55;287.75;;;271.65;;
11039;SDS011;5573;49.592;8.662;2023-05-20T04:21:25;276.35;;;260.40;;
11039;SDS011;5573;49.592;8.662;2023-05-20T04:23:52;289.77;;;273.17;;
11039;SDS011;5573;49.592;8.662;2023-05-20T04:26:20;267.77;;;252.75;;
11039;SDS011;5573;49.592;8.662;2023-05-20T04:28:48;279.05;;;263.15;;
11039;SDS011;5573;49.592;8.662;2023-05-20T04:31:18;286.80;;;270.23;;
11039;SDS011;5573;49.592;8.662;2023-05-20T04:33:46;284.75;;;268.75;;
11039;SDS011;5573;49.592;8.662;2023-05-20T04:36:14;288.58;;;272.30;;
11039;SDS011;5573;49.592;8.662;2023-05-20T04:38:43;308.60;;;290.83;;
11039;SDS011;5573;49.592;8.662;2023-05-20T04:41:11;283.42;;;267.65;;
11039;SDS011;5573;49.592;8.662;2023-05-20T04:43:42;268.67;;;253.20;;
11039;SDS011;5573;49.592;8.662;2023-05-20T04:46:11;276.13;;;260.42;;
11039;SDS011;5573;49.592;8.662;2023-05-20T04:48:42;293.05;;;276.67;;
11039;SDS011;5573;49.592;8.662;2023-05-20T04:51:11;285.52;;;269.55;;
11039;SDS011;5573;49.592;8.662;2023-05-20T04:53:39;281.63;;;265.65;;
11039;SDS011;5573;49.592;8.662;2023-05-20T04:56:09;272.85;;;257.30;;
11039;SDS011;5573;49.592;8.662;2023-05-20T04:58:37;279.38;;;263.83;;
11039;SDS011;5573;49.592;8.662;2023-05-20T05:01:05;281.42;;;265.60;;
11039;SDS011;5573;49.592;8.662;2023-05-20T05:03:33;269.30;;;254.15;;
11039;SDS011;5573;49.592;8.662;2023-05-20T05:06:04;281.60;;;265.55;;
11039;SDS011;5573;49.592;8.662;2023-05-20T05:08:32;287.17;;;270.45;;
11039;SDS011;5573;49.592;8.662;2023-05-20T05:10:59;310.63;;;293.10;;
11039;SDS011;5573;49.592;8.662;2023-05-20T05:13:27;277.83;;;262.08;;
11039;SDS011;5573;49.592;8.662;2023-05-20T05:15:58;291.80;;;274.92;;
11039;SDS011;5573;49.592;8.662;2023-05-20T05:18:28;273.33;;;258.02;;
11039;SDS011;5573;49.592;8.662;2023-05-20T05:20:57;276.17;;;260.42;;
11039;SDS011;5573;49.592;8.662;2023-05-20T05:23:28;276.92;;;261.08;;
11039;SDS011;5573;49.592;8.662;2023-05-20T05:25:57;281.27;;;265.30;;
11039;SDS011;5573;49.592;8.662;2023-05-20T05:28:26;280.58;;;264.90;;
11039;SDS011;5573;49.592;8.662;2023-05-20T05:30:54;280.95;;;265.05;;
11039;SDS011;5573;49.592;8.662;2023-05-20T05:33:22;294.05;;;277.38;;
11039;SDS011;5573;49.592;8.662;2023-05-20T05:35:50;291.77;;;275.35;;
11039;SDS011;5573;49.592;8.662;2023-05-20T05:38:18;280.27;;;264.63;;
11039;SDS011;5573;49.592;8.662;2023-05-20T05:40:47;292.38;;;276.13;;
11039;SDS011;5573;49.592;8.662;2023-05-20T05:43:16;278.45;;;262.67;;
11039;SDS011;5573;49.592;8.662;2023-05-20T05:45:46;290.77;;;274.33;;
11039;SDS011;5573;49.592;8.662;2023-05-20T05:48:13;290.33;;;273.73;;
11039;SDS011;5573;49.592;8.662;2023-05-20T05:50:43;279.90;;;263.85;;
11039;SDS011;5573;49.592;8.662;2023-05-20T05:53:13;294.58;;;277.77;;
11039;SDS011;5573;49.592;8.662;2023-05-20T05:55:44;284.08;;;267.98;;
11039;SDS011;5573;49.592;8.662;2023-05-20T05:58:15;273.77;;;258.33;;
11039;SDS011;5573;49.592;8.662;2023-05-20T06:00:43;284.90;;;268.73;;
11039;SDS011;5573;49.592;8.662;2023-05-20T06:03:11;279.17;;;263.63;;
11039;SDS011;5573;49.592;8.662;2023-05-20T06:05:39;283.45;;;267.55;;
11039;SDS011;5573;49.592;8.662;2023-05-20T06:08:07;301.58;;;284.70;;
11039;SDS011;5573;49.592;8.662;2023-05-20T06:10:35;314.23;;;296.75;;
11039;SDS011;5573;49.592;8.662;2023-05-20T06:13:03;275.02;;;259.98;;
11039;SDS011;5573;49.592;8.662;2023-05-20T06:15:34;298.92;;;282.48;;
11039;SDS011;5573;49.592;8.662;2023-05-20T06:18:02;301.98;;;285.25;;
11039;SDS011;5573;49.592;8.662;2023-05-20T06:20:31;302.55;;;285.52;;
11039;SDS011;5573;49.592;8.662;2023-05-20T06:22:59;287.73;;;272.10;;
11039;SDS011;5573;49.592;8.662;2023-05-20T06:25:44;279.92;;;264.38;;
11039;SDS011;5573;49.592;8.662;2023-05-20T06:28:13;280.85;;;265.52;;
11039;SDS011;5573;49.592;8.662;2023-05-20T06:30:42;303.50;;;286.98;;
11039;SDS011;5573;49.592;8.662;2023-05-20T06:33:10;280.98;;;265.42;;
11039;SDS011;5573;49.592;8.662;2023-05-20T06:35:38;292.60;;;276.15;;
11039;SDS011;5573;49.592;8.662;2023-05-20T06:38:06;289.50;;;273.67;;
11039;SDS011;5573;49.592;8.662;2023-05-20T06:40:34;303.60;;;286.70;;
11039;SDS011;5573;49.592;8.662;2023-05-20T06:43:02;298.30;;;281.85;;
11039;SDS011;5573;49.592;8.662;2023-05-20T06:45:53;288.10;;;272.50;;
11039;SDS011;5573;49.592;8.662;2023-05-20T06:48:26;293.08;;;277.08;;
11039;SDS011;5573;49.592;8.662;2023-05-20T06:50:54;272.30;;;257.30;;
11039;SDS011;5573;49.592;8.662;2023-05-20T06:53:23;289.83;;;274.08;;
11039;SDS011;5573;49.592;8.662;2023-05-20T06:55:51;300.33;;;284.05;;
11039;SDS011;5573;49.592;8.662;2023-05-20T06:58:20;306.05;;;289.48;;
11039;SDS011;5573;49.592;8.662;2023-05-20T07:00:54;297.63;;;281.05;;
11039;SDS011;5573;49.592;8.662;2023-05-20T07:03:23;300.23;;;283.90;;
11039;SDS011;5573;49.592;8.662;2023-05-20T07:05:52;300.45;;;284.10;;
11039;SDS011;5573;49.592;8.662;2023-05-20T07:08:20;312.05;;;295.13;;
11039;SDS011;5573;49.592;8.662;2023-05-20T07:10:48;316.95;;;299.80;;
11039;SDS011;5573;49.592;8.662;2023-05-20T07:13:19;294.25;;;277.95;;
11039;SDS011;5573;49.592;8.662;2023-05-20T07:15:49;302.73;;;285.98;;
11039;SDS011;5573;49.592;8.662;2023-05-20T07:18:19;291.42;;;275.40;;
11039;SDS011;5573;49.592;8.662;2023-05-20T07:20:52;296.95;;;280.75;;
11039;SDS011;5573;49.592;8.662;2023-05-20T07:23:33;284.23;;;268.55;;
11039;SDS011;5573;49.592;8.662;2023-05-20T07:26:00;309.75;;;292.65;;
11039;SDS011;5573;49.592;8.662;2023-05-20T07:28:28;305.98;;;289.15;;
11039;SDS011;5573;49.592;8.662;2023-05-20T07:30:57;303.52;;;286.80;;
11039;SDS011;5573;49.592;8.662;2023-05-20T07:33:29;310.45;;;293.27;;
11039;SDS011;5573;49.592;8.662;2023-05-20T07:35:57;301.52;;;284.45;;
11039;SDS011;5573;49.592;8.662;2023-05-20T07:38:25;325.15;;;307.30;;
11039;SDS011;5573;49.592;8.662;2023-05-20T07:40:57;304.40;;;287.88;;
11039;SDS011;5573;49.592;8.662;2023-05-20T07:43:26;289.95;;;274.42;;
11039;SDS011;5573;49.592;8.662;2023-05-20T07:45:55;289.40;;;273.23;;
11039;SDS011;5573;49.592;8.662;2023-05-20T07:48:23;312.15;;;294.83;;
11039;SDS011;5573;49.592;8.662;2023-05-20T07:50:52;318.50;;;300.92;;
11039;SDS011;5573;49.592;8.662;2023-05-20T07:53:22;342.80;;;324.00;;
11039;SDS011;5573;49.592;8.662;2023-05-20T07:55:50;355.13;;;335.00;;
11039;SDS011;5573;49.592;8.662;2023-05-20T07:58:19;361.63;;;341.17;;
11039;SDS011;5573;49.592;8.662;2023-05-20T08:00:48;375.73;;;354.10;;
11039;SDS011;5573;49.592;8.662;2023-05-20T08:03:16;389.42;;;366.88;;
11039;SDS011;5573;49.592;8.662;2023-05-20T08:05:54;381.20;;;359.08;;
11039;SDS011;5573;49.592;8.662;2023-05-20T08:08:22;370.67;;;349.85;;
11039;SDS011;5573;49.592;8.662;2023-05-20T08:10:54;369.48;;;348.20;;
11039;SDS011;5573;49.592;8.662;2023-05-20T08:13:23;359.52;;;338.98;;
11039;SDS011;5573;49.592;8.662;2023-05-20T08:15:52;326.92;;;308.35;;
11039;SDS011;5573;49.592;8.662;2023-05-20T08:18:20;307.63;;;290.33;;
11039;SDS011;5573;49.592;8.662;2023-05-20T08:20:48;303.20;;;285.90;;
11039;SDS011;5573;49.592;8.662;2023-05-20T08:23:18;307.20;;;289.77;;
11039;SDS011;5573;49.592;8.662;2023-05-20T08:25:45;311.70;;;293.95;;
11039;SDS011;5573;49.592;8.662;2023-05-20T08:28:14;316.08;;;298.38;;
11039;SDS011;5573;49.592;8.662;2023-05-20T08:30:43;308.75;;;291.50;;
11039;SDS011;5573;49.592;8.662;2023-05-20T08:33:13;331.60;;;312.63;;
11039;SDS011;5573;49.592;8.662;2023-05-20T08:35:41;326.30;;;308.05;;
11039;SDS011;5573;49.592;8.662;2023-05-20T08:38:08;313.10;;;295.88;;
11039;SDS011;5573;49.592;8.662;2023-05-20T08:40:38;322.45;;;305.20;;
11039;SDS011;5573;49.592;8.662;2023-05-20T08:43:05;311.35;;;294.35;;
11039;SDS011;5573;49.592;8.662;2023-05-20T08:45:36;334.65;;;316.02;;
11039;SDS011;5573;49.592;8.662;2023-05-20T08:48:09;322.10;;;304.52;;
11039;SDS011;5573;49.592;8.662;2023-05-20T08:50:38;301.27;;;284.50;;
11039;SDS011;5573;49.592;8.662;2023-05-20T08:53:06;323.67;;;305.52;;
11039;SDS011;5573;49.592;8.662;2023-05-20T08:55:36;314.77;;;297.02;;
11039;SDS011;5573;49.592;8.662;2023-05-20T08:58:09;323.33;;;305.45;;
11039;SDS011;5573;49.592;8.662;2023-05-20T09:00:36;305.58;;;288.45;;
11039;SDS011;5573;49.592;8.662;2023-05-20T09:03:05;298.27;;;281.92;;
11039;SDS011;5573;49.592;8.662;2023-05-20T09:05:33;304.92;;;288.27;;
11039;SDS011;5573;49.592;8.662;2023-05-20T09:08:05;313.98;;;296.52;;
11039;SDS011;5573;49.592;8.662;2023-05-20T09:10:33;300.80;;;283.75;;
11039;SDS011;5573;49.592;8.662;2023-05-20T09:13:04;311.67;;;294.55;;
11039;SDS011;5573;49.592;8.662;2023-05-20T09:15:33;316.45;;;298.67;;
11039;SDS011;5573;49.592;8.662;2023-05-20T09:18:03;315.10;;;297.33;;
11039;SDS011;5573;49.592;8.662;2023-05-20T09:20:33;309.55;;;292.23;;
11039;SDS011;5573;49.592;8.662;2023-05-20T09:23:04;314.52;;;297.00;;
11039;SDS011;5573;49.592;8.662;2023-05-20T09:25:33;311.98;;;294.45;;
11039;SDS011;5573;49.592;8.662;2023-05-20T09:28:04;328.67;;;310.10;;
11039;SDS011;5573;49.592;8.662;2023-05-20T09:30:33;322.30;;;304.17;;
11039;SDS011;5573;49.592;8.662;2023-05-20T09:33:03;301.40;;;284.63;;
11039;SDS011;5573;49.592;8.662;2023-05-20T09:35:33;309.15;;;292.30;;
11039;SDS011;5573;49.592;8.662;2023-05-20T09:38:03;335.45;;;316.55;;
11039;SDS011;5573;49.592;8.662;2023-05-20T09:40:32;309.10;;;291.85;;
11039;SDS011;5573;49.592;8.662;2023-05-20T09:43:03;296.52;;;280.08;;
11039;SDS011;5573;49.592;8.662;2023-05-20T09:45:33;322.60;;;304.48;;
11039;SDS011;5573;49.592;8.662;2023-05-20T09:48:02;310.98;;;293.40;;
11039;SDS011;5573;49.592;8.662;2023-05-20T09:50:32;305.38;;;288.38;;
11039;SDS011;5573;49.592;8.662;2023-05-20T09:53:01;312.60;;;294.92;;
11039;SDS011;5573;49.592;8.662;2023-05-20T09:55:29;313.08;;;295.38;;
11039;SDS011;5573;49.592;8.662;2023-05-20T09:58:00;298.95;;;282.27;;
11039;SDS011;5573;49.592;8.662;2023-05-20T10:00:30;292.77;;;275.80;;
11039;SDS011;5573;49.592;8.662;2023-05-20T10:02:58;312.38;;;294.63;;
11039;SDS011;5573;49.592;8.662;2023-05-20T10:05:27;311.20;;;293.85;;
11039;SDS011;5573;49.592;8.662;2023-05-20T10:08:11;302.63;;;285.55;;
11039;SDS011;5573;49.592;8.662;2023-05-20T10:11:11;307.02;;;289.33;;
11039;SDS011;5573;49.592;8.662;2023-05-20T10:13:49;300.75;;;283.50;;
11039;SDS011;5573;49.592;8.662;2023-05-20T10:16:31;302.23;;;285.70;;
11039;SDS011;5573;49.592;8.662;2023-05-20T10:19:13;308.67;;;291.25;;
11039;SDS011;5573;49.592;8.662;2023-05-20T10:21:58;305.60;;;288.17;;
11039;SDS011;5573;49.592;8.662;2023-05-20T10:24:28;312.25;;;294.42;;
11039;SDS011;5573;49.592;8.662;2023-05-20T10:26:57;325.25;;;306.38;;
11039;SDS011;5573;49.592;8.662;2023-05-20T10:29:28;327.90;;;308.77;;
11039;SDS011;5573;49.592;8.662;2023-05-20T10:31:57;305.38;;;288.13;;
11039;SDS011;5573;49.592;8.662;2023-05-20T10:34:25;331.50;;;312.13;;
11039;SDS011;5573;49.592;8.662;2023-05-20T10:36:56;313.92;;;296.05;;
11039;SDS011;5573;49.592;8.662;2023-05-20T10:39:25;310.27;;;292.38;;
11039;SDS011;5573;49.592;8.662;2023-05-20T10:42:04;317.17;;;298.85;;
11039;SDS011;5573;49.592;8.662;2023-05-20T10:44:40;308.63;;;290.70;;
11039;SDS011;5573;49.592;8.662;2023-05-20T10:47:10;334.42;;;314.70;;
11039;SDS011;5573;49.592;8.662;2023-05-20T10:49:43;329.88;;;311.10;;
11039;SDS011;5573;49.592;8.662;2023-05-20T10:52:11;321.20;;;303.08;;
11039;SDS011;5573;49.592;8.662;2023-05-20T10:54:42;316.15;;;297.92;;
11039;SDS011;5573;49.592;8.662;2023-05-20T10:57:12;325.88;;;306.85;;
11039;SDS011;5573;49.592;8.662;2023-05-20T10:59:40;328.02;;;309.00;;
11039;SDS011;5573;49.592;8.662;2023-05-20T11:02:10;316.35;;;298.77;;
11039;SDS011;5573;49.592;8.662;2023-05-20T11:04:38;332.83;;;313.35;;
11039;SDS011;5573;49.592;8.662;2023-05-20T11:07:09;321.35;;;303.35;;
11039;SDS011;5573;49.592;8.662;2023-05-20T11:09:37;292.60;;;275.55;;
11039;SDS011;5573;49.592;8.662;2023-05-20T11:12:05;328.60;;;309.88;;
11039;SDS011;5573;49.592;8.662;2023-05-20T11:14:33;330.65;;;311.65;;
11039;SDS011;5573;49.592;8.662;2023-05-20T11:17:02;353.67;;;332.88;;
11039;SDS011;5573;49.592;8.662;2023-05-20T11:19:31;320.58;;;302.30;;
11039;SDS011;5573;49.592;8.662;2023-05-20T11:21:59;323.90;;;305.38;;
11039;SDS011;5573;49.592;8.662;2023-05-20T11:24:27;342.10;;;322.60;;
11039;SDS011;5573;49.592;8.662;2023-05-20T11:26:55;327.73;;;308.90;;
11039;SDS011;5573;49.592;8.662;2023-05-20T11:29:25;325.27;;;307.05;;
11039;SDS011;5573;49.592;8.662;2023-05-20T11:31:54;332.67;;;313.88;;
11039;SDS011;5573;49.592;8.662;2023-05-20T11:34:22;337.58;;;318.38;;
11039;SDS011;5573;49.592;8.662;2023-05-20T11:36:56;321.45;;;303.60;;
11039;SDS011;5573;49.592;8.662;2023-05-20T11:39:24;325.83;;;307.33;;
11039;SDS011;5573;49.592;8.662;2023-05-20T11:41:56;322.17;;;303.73;;
11039;SDS011;5573;49.592;8.662;2023-05-20T11:44:24;354.58;;;334.38;;
11039;SDS011;5573;49.592;8.662;2023-05-20T11:46:57;347.77;;;328.10;;
11039;SDS011;5573;49.592;8.662;2023-05-20T11:49:26;335.52;;;316.75;;
11039;SDS011;5573;49.592;8.662;2023-05-20T11:51:57;337.17;;;317.90;;
11039;SDS011;5573;49.592;8.662;2023-05-20T11:54:25;355.63;;;335.00;;
11039;SDS011;5573;49.592;8.662;2023-05-20T11:56:53;347.23;;;327.55;;
11039;SDS011;5573;49.592;8.662;2023-05-20T11:59:22;363.85;;;342.98;;
11039;SDS011;5573;49.592;8.662;2023-05-20T12:01:51;321.23;;;303.05;;
11039;SDS011;5573;49.592;8.662;2023-05-20T12:04:19;337.25;;;318.05;;
11039;SDS011;5573;49.592;8.662;2023-05-20T12:06:47;345.67;;;326.05;;
11039;SDS011;5573;49.592;8.662;2023-05-20T12:09:16;337.33;;;318.02;;
11039;SDS011;5573;49.592;8.662;2023-05-20T12:11:44;341.42;;;322.05;;
11039;SDS011;5573;49.592;8.662;2023-05-20T12:14:12;349.80;;;329.23;;
11039;SDS011;5573;49.592;8.662;2023-05-20T12:16:40;338.40;;;318.52;;
11039;SDS011;5573;49.592;8.662;2023-05-20T12:19:07;358.10;;;337.73;;
11039;SDS011;5573;49.592;8.662;2023-05-20T12:21:36;348.83;;;328.85;;
11039;SDS011;5573;49.592;8.662;2023-05-20T12:24:03;326.00;;;307.70;;
11039;SDS011;5573;49.592;8.662;2023-05-20T12:26:35;352.70;;;332.38;;
11039;SDS011;5573;49.592;8.662;2023-05-20T12:29:03;326.38;;;307.65;;
11039;SDS011;5573;49.592;8.662;2023-05-20T12:31:32;338.10;;;319.00;;
11039;SDS011;5573;49.592;8.662;2023-05-20T12:34:00;374.67;;;353.02;;
11039;SDS011;5573;49.592;8.662;2023-05-20T12:36:29;370.25;;;348.83;;
11039;SDS011;5573;49.592;8.662;2023-05-20T12:38:56;348.98;;;328.92;;
11039;SDS011;5573;49.592;8.662;2023-05-20T12:41:25;364.35;;;343.08;;
11039;SDS011;5573;49.592;8.662;2023-05-20T12:43:54;370.92;;;349.70;;
11039;SDS011;5573;49.592;8.662;2023-05-20T12:46:21;348.00;;;327.92;;
11039;SDS011;5573;49.592;8.662;2023-05-20T12:48:49;383.65;;;361.40;;
11039;SDS011;5573;49.592;8.662;2023-05-20T12:51:19;357.40;;;336.92;;
11039;SDS011;5573;49.592;8.662;2023-05-20T12:53:46;361.17;;;340.60;;
11039;SDS011;5573;49.592;8.662;2023-05-20T12:56:14;379.23;;;357.25;;
11039;SDS011;5573;49.592;8.662;2023-05-20T12:58:43;376.38;;;354.73;;
11039;SDS011;5573;49.592;8.662;2023-05-20T13:01:12;372.23;;;350.48;;
11039;SDS011;5573;49.592;8.662;2023-05-20T13:03:40;370.52;;;348.65;;
11039;SDS011;5573;49.592;8.662;2023-05-20T13:06:07;385.73;;;363.42;;
11039;SDS011;5573;49.592;8.662;2023-05-20T13:08:35;374.70;;;353.00;;
11039;SDS011;5573;49.592;8.662;2023-05-20T13:11:03;368.70;;;347.10;;
11039;SDS011;5573;49.592;8.662;2023-05-20T13:13:31;386.88;;;364.25;;
11039;SDS011;5573;49.592;8.662;2023-05-20T13:15:59;376.17;;;354.13;;
11039;SDS011;5573;49.592;8.662;2023-05-20T13:18:28;402.67;;;378.15;;
11039;SDS011;5573;49.592;8.662;2023-05-20T13:20:56;398.90;;;375.25;;
11039;SDS011;5573;49.592;8.662;2023-05-20T13:23:24;423.33;;;397.88;;
11039;SDS011;5573;49.592;8.662;2023-05-20T13:25:52;405.15;;;381.48;;
11039;SDS011;5573;49.592;8.662;2023-05-20T13:28:20;402.10;;;378.40;;
11039;SDS011;5573;49.592;8.662;2023-05-20T13:30:47;410.05;;;385.77;;
11039;SDS011;5573;49.592;8.662;2023-05-20T13:33:15;403.45;;;379.50;;
11039;SDS011;5573;49.592;8.662;2023-05-20T13:35:44;410.23;;;385.17;;
11039;SDS011;5573;49.592;8.662;2023-05-20T13:38:13;393.73;;;370.63;;
11039;SDS011;5573;49.592;8.662;2023-05-20T13:40:40;423.27;;;397.92;;
11039;SDS011;5573;49.592;8.662;2023-05-20T13:43:08;430.52;;;404.60;;
11039;SDS011;5573;49.592;8.662;2023-05-20T13:45:36;400.70;;;376.23;;
11039;SDS011;5573;49.592;8.662;2023-05-20T13:48:04;394.90;;;371.42;;
11039;SDS011;5573;49.592;8.662;2023-05-20T13:50:32;391.95;;;368.83;;
11039;SDS011;5573;49.592;8.662;2023-05-20T13:53:02;391.63;;;367.83;;
11039;SDS011;5573;49.592;8.662;2023-05-20T13:55:30;393.63;;;369.90;;
11039;SDS011;5573;49.592;8.662;2023-05-20T13:57:58;387.80;;;364.55;;
11039;SDS011;5573;49.592;8.662;2023-05-20T14:00:25;405.10;;;381.00;;
11039;SDS011;5573;49.592;8.662;2023-05-20T14:02:54;394.10;;;370.13;;
11039;SDS011;5573;49.592;8.662;2023-05-20T14:05:21;412.38;;;387.67;;
11039;SDS011;5573;49.592;8.662;2023-05-20T14:07:49;392.42;;;369.13;;
11039;SDS011;5573;49.592;8.662;2023-05-20T14:10:18;409.90;;;385.55;;
11039;SDS011;5573;49.592;8.662;2023-05-20T14:12:46;392.02;;;368.25;;
11039;SDS011;5573;49.592;8.662;2023-05-20T14:15:14;390.80;;;367.77;;
11039;SDS011;5573;49.592;8.662;2023-05-20T14:17:42;378.55;;;355.80;;
11039;SDS011;5573;49.592;8.662;2023-05-20T14:20:10;374.50;;;352.38;;